createdAt,value
2022-11-21T00:00:09.322Z,99844.75
2022-11-21T00:05:11.041Z,99839.38
2022-11-21T00:10:13.251Z,99845.59
2022-11-21T00:15:14.870Z,99857.63
2022-11-21T00:20:17.780Z,99854.44
2022-11-21T00:25:19.605Z,99860.72
2022-11-21T00:30:21.531Z,99858.94
2022-11-21T00:35:23.090Z,99863.00
2022-11-21T00:40:24.711Z,99865.78
2022-11-21T00:45:26.254Z,99855.78
2022-11-21T00:50:27.863Z,99859.63
2022-11-21T00:55:29.508Z,99868.31
2022-11-21T01:00:31.137Z,99858.06
2022-11-21T01:05:33.278Z,99866.53
2022-11-21T01:10:35.981Z,99862.50
2022-11-21T01:15:37.739Z,99871.75
2022-11-21T01:20:40.054Z,99871.53
2022-11-21T01:25:43.746Z,99870.50
2022-11-21T01:30:45.374Z,99885.78
2022-11-21T01:35:46.989Z,99879.50
2022-11-21T01:40:48.474Z,99882.25
2022-11-21T01:45:55.901Z,99880.09
2022-11-21T01:51:02.442Z,99883.75
2022-11-21T01:56:05.382Z,99879.84
2022-11-21T02:01:07.430Z,99876.09
2022-11-21T02:06:10.602Z,99872.44
2022-11-21T02:11:37.696Z,99887.25
2022-11-21T02:16:39.789Z,99885.41
2022-11-21T02:22:02.225Z,99882.91
2022-11-21T02:27:03.883Z,99890.19
2022-11-21T02:32:05.942Z,99892.75
2022-11-21T02:37:09.487Z,99882.78
2022-11-21T02:42:28.426Z,99878.59
2022-11-21T02:47:31.147Z,99885.34
2022-11-21T02:52:32.799Z,99881.94
2022-11-21T02:57:34.319Z,99890.78
2022-11-21T03:02:36.408Z,99892.78
2022-11-21T03:07:38.515Z,99892.56
2022-11-21T03:12:42.630Z,99905.00
2022-11-21T03:17:48.520Z,99902.75
2022-11-21T03:22:50.177Z,99908.78
2022-11-21T03:27:52.726Z,99904.19
2022-11-21T03:32:57.978Z,99896.53
2022-11-21T03:37:59.804Z,99911.66
2022-11-21T03:43:05.749Z,99900.03
2022-11-21T03:48:07.569Z,99898.91
2022-11-21T03:53:11.732Z,99906.78
2022-11-21T03:58:13.371Z,99905.00
2022-11-21T04:03:15.004Z,99893.25
2022-11-21T04:08:16.644Z,99901.81
2022-11-21T04:13:18.524Z,99901.44
2022-11-21T04:18:20.134Z,99907.63
2022-11-21T04:23:21.811Z,99905.75
2022-11-21T04:28:23.992Z,99902.69
2022-11-21T04:33:25.650Z,99899.06
2022-11-21T04:38:27.224Z,99909.44
2022-11-21T04:43:28.904Z,99908.66
2022-11-21T04:48:30.745Z,99898.47
2022-11-21T04:53:32.454Z,99894.78
2022-11-21T04:58:34.217Z,99914.03
2022-11-21T05:03:36.571Z,99895.34
2022-11-21T05:08:38.135Z,99897.84
2022-11-21T05:13:39.813Z,99899.69
2022-11-21T05:18:41.425Z,99891.25
2022-11-21T05:23:43.141Z,99885.59
2022-11-21T05:28:44.739Z,99881.63
2022-11-21T05:33:46.281Z,99877.16
2022-11-21T05:38:47.845Z,99872.72
2022-11-21T05:43:49.366Z,99887.59
2022-11-21T05:48:52.831Z,99888.09
2022-11-21T05:53:54.401Z,99881.88
2022-11-21T05:58:56.875Z,99883.53
2022-11-21T06:04:01.361Z,99882.25
2022-11-21T06:09:04.449Z,99883.25
2022-11-21T06:14:06.152Z,99885.84
2022-11-21T06:19:07.757Z,99894.72
2022-11-21T06:24:09.581Z,99890.13
2022-11-21T06:29:11.795Z,99886.72
2022-11-21T06:34:13.487Z,99869.03
2022-11-21T06:39:15.117Z,99867.00
2022-11-21T06:44:19.946Z,99870.44
2022-11-21T06:49:21.539Z,99873.84
2022-11-21T06:54:23.135Z,99883.28
2022-11-21T06:59:24.905Z,99877.72
2022-11-21T07:04:26.792Z,99887.03
2022-11-21T07:09:33.806Z,99883.41
2022-11-21T07:14:35.743Z,99882.97
2022-11-21T07:19:40.836Z,99875.28
2022-11-21T07:24:42.858Z,99873.59
2022-11-21T07:29:44.617Z,99879.25
2022-11-21T07:34:46.511Z,99875.53
2022-11-21T07:39:48.108Z,99874.59
2022-11-21T07:44:49.809Z,99884.09
2022-11-21T07:49:51.659Z,99881.00
2022-11-21T07:54:53.418Z,99881.81
2022-11-21T07:59:55.445Z,99884.13
2022-11-21T08:04:57.100Z,99865.97
2022-11-21T08:09:59.383Z,99855.47
2022-11-21T08:15:01.071Z,99847.97
2022-11-21T08:20:02.808Z,99858.53
2022-11-21T08:25:04.872Z,99848.03
2022-11-21T08:30:08.570Z,99859.72
2022-11-21T08:35:10.396Z,99866.00
2022-11-21T08:40:12.031Z,99864.63
2022-11-21T08:45:13.567Z,99854.78
2022-11-21T08:50:15.521Z,99865.84
2022-11-21T08:55:17.160Z,99855.69
2022-11-21T09:00:19.014Z,99851.63
2022-11-21T09:05:20.861Z,99859.63
2022-11-21T09:10:22.625Z,99852.94
2022-11-21T09:15:24.479Z,99843.53
2022-11-21T09:20:26.226Z,99830.03
2022-11-21T09:25:27.907Z,99823.44
2022-11-21T09:30:29.572Z,99824.47
2022-11-21T09:35:31.614Z,99824.81
2022-11-21T09:40:35.421Z,99825.31
2022-11-21T09:45:48.522Z,99822.97
2022-11-21T09:51:02.386Z,99817.31
2022-11-21T09:56:13.963Z,99814.03
2022-11-21T10:01:17.341Z,99808.66
2022-11-21T10:06:21.688Z,99810.06
2022-11-21T10:11:49.592Z,99805.00
2022-11-21T10:17:09.954Z,99788.91
2022-11-21T10:22:20.372Z,99780.66
2022-11-21T10:28:08.481Z,99765.13
2022-11-21T10:33:20.765Z,99755.88
2022-11-21T10:38:25.178Z,99760.91
2022-11-21T10:43:38.856Z,99756.28
2022-11-21T10:48:41.396Z,99742.16
2022-11-21T10:53:43.240Z,99739.19
2022-11-21T10:58:46.481Z,99720.59
2022-11-21T11:04:26.262Z,99715.16
2022-11-21T11:09:33.904Z,99710.50
2022-11-21T11:14:35.538Z,99702.38
2022-11-21T11:19:40.343Z,99682.94
2022-11-21T11:24:55.077Z,99672.47
2022-11-21T11:30:07.396Z,99661.09
2022-11-21T11:35:12.210Z,99659.78
2022-11-21T11:40:30.804Z,99651.59
2022-11-21T11:45:53.731Z,99632.38
2022-11-21T11:51:07.166Z,99628.50
2022-11-21T11:56:16.571Z,99616.22
2022-11-21T12:01:39.174Z,99605.88
2022-11-21T12:12:21.234Z,99603.53
2022-11-21T12:17:32.445Z,99596.56
2022-11-21T12:22:34.087Z,99578.22
2022-11-21T12:27:35.866Z,99581.22
2022-11-21T12:33:07.940Z,99567.53
2022-11-21T12:38:19.394Z,99560.09
2022-11-21T12:43:44.120Z,99552.84
2022-11-21T12:49:02.677Z,99545.66
2022-11-21T12:54:38.500Z,99542.56
2022-11-21T12:59:58.320Z,99542.63
2022-11-21T13:05:03.171Z,99519.53
2022-11-21T13:10:11.647Z,99514.78
2022-11-21T13:15:19.646Z,99506.25
2022-11-21T13:20:51.056Z,99504.25
2022-11-21T13:25:52.631Z,99491.59
2022-11-21T13:30:55.932Z,99487.38
2022-11-21T13:35:57.753Z,99476.66
2022-11-21T13:40:59.589Z,99453.81
2022-11-21T13:46:01.478Z,99438.22
2022-11-21T13:51:34.164Z,99437.94
2022-11-21T13:57:00.551Z,99433.16
2022-11-21T14:02:08.049Z,99418.97
2022-11-21T14:07:24.785Z,99408.75
2022-11-21T14:12:39.635Z,99391.16
2022-11-21T14:17:55.697Z,99377.50
2022-11-21T14:23:18.337Z,99364.47
2022-11-21T14:28:27.856Z,99357.72
2022-11-21T14:33:31.098Z,99363.78
2022-11-21T14:39:29.002Z,99352.41
2022-11-21T14:44:21.527Z,99324.97
2022-11-21T14:49:25.102Z,99304.31
2022-11-21T14:54:30.543Z,99278.41
2022-11-21T14:59:35.473Z,99276.59
2022-11-21T15:04:37.513Z,99263.19
2022-11-21T15:15:07.658Z,99236.50
2022-11-21T15:20:12.107Z,99225.84
2022-11-21T15:25:13.758Z,99206.56
2022-11-21T15:30:15.375Z,99210.38
2022-11-21T15:35:32.064Z,99200.94
2022-11-21T15:40:33.797Z,99208.59
2022-11-21T15:45:35.564Z,99199.31
2022-11-21T15:50:37.112Z,99191.50
2022-11-21T15:55:38.648Z,99163.00
2022-11-21T16:00:40.225Z,99158.19
2022-11-21T16:05:42.010Z,99156.81
2022-11-21T16:10:43.841Z,99143.38
2022-11-21T16:15:45.475Z,99143.97
2022-11-21T16:20:48.288Z,99137.53
2022-11-21T16:25:54.233Z,99134.13
2022-11-21T16:30:58.661Z,99129.34
2022-11-21T16:36:00.667Z,99118.25
2022-11-21T16:41:03.697Z,99102.81
2022-11-21T16:46:08.466Z,99091.38
2022-11-21T16:51:12.983Z,99084.59
2022-11-21T16:56:15.897Z,99068.69
2022-11-21T17:01:23.118Z,99032.00
2022-11-21T17:06:28.538Z,99013.16
2022-11-21T17:11:31.277Z,99014.75
2022-11-21T17:16:34.233Z,99001.53
2022-11-21T17:21:36.137Z,98996.91
2022-11-21T17:26:37.754Z,99009.53
2022-11-21T17:31:39.342Z,99001.72
2022-11-21T17:36:41.028Z,99010.94
2022-11-21T17:41:42.670Z,99020.97
2022-11-21T17:46:44.236Z,99024.44
2022-11-21T17:51:46.191Z,99011.75
2022-11-21T17:56:52.644Z,99010.41
2022-11-21T18:01:58.183Z,99008.56
2022-11-21T18:06:59.931Z,99025.63
2022-11-21T18:12:01.605Z,99033.22
2022-11-21T18:17:03.370Z,99026.63
2022-11-21T18:22:05.375Z,99010.94
2022-11-21T18:27:07.224Z,99020.38
2022-11-21T18:32:08.800Z,99008.31
2022-11-21T18:37:10.433Z,99008.16
2022-11-21T18:42:12.072Z,98999.09
2022-11-21T18:47:20.493Z,98982.59
2022-11-21T18:52:22.984Z,98971.09
2022-11-21T18:57:25.017Z,98970.72
2022-11-21T19:02:26.667Z,98976.03
2022-11-21T19:07:28.422Z,98958.50
2022-11-21T19:12:33.813Z,98954.66
2022-11-21T19:17:37.894Z,98938.66
2022-11-21T19:22:39.630Z,98938.88
2022-11-21T19:27:41.635Z,98920.81
2022-11-21T19:32:43.382Z,98920.81
2022-11-21T19:37:46.241Z,98914.63
2022-11-21T19:42:47.880Z,98907.78
2022-11-21T19:47:49.411Z,98894.75
2022-11-21T19:52:51.004Z,98890.38
2022-11-21T19:57:52.537Z,98884.16
2022-11-21T20:02:54.091Z,98877.53
2022-11-21T20:08:01.696Z,98857.88
2022-11-21T20:13:05.760Z,98846.84
2022-11-21T20:18:07.316Z,98843.19
2022-11-21T20:23:08.954Z,98833.53
2022-11-21T20:28:11.879Z,98819.63
2022-11-21T20:33:13.572Z,98809.28
2022-11-21T20:38:17.890Z,98794.69
2022-11-21T20:43:23.233Z,98780.22
2022-11-21T20:48:24.861Z,98783.63
2022-11-21T20:58:49.603Z,98788.97
2022-11-21T21:03:51.198Z,98788.75
2022-11-21T21:08:52.889Z,98781.38
2022-11-21T21:13:54.487Z,98767.09
2022-11-21T21:18:56.622Z,98756.19
2022-11-21T21:24:04.291Z,98766.56
2022-11-21T21:29:05.951Z,98764.25
2022-11-21T21:34:09.161Z,98758.50
2022-11-21T21:39:10.973Z,98748.41
2022-11-21T21:44:12.722Z,98742.53
2022-11-21T21:49:14.498Z,98744.72
2022-11-21T21:54:18.846Z,98749.06
2022-11-21T21:59:20.464Z,98738.84
2022-11-21T22:04:22.030Z,98748.84
2022-11-21T22:09:23.637Z,98751.53
2022-11-21T22:14:25.298Z,98749.34
2022-11-21T22:19:27.092Z,98739.66
2022-11-21T22:24:29.029Z,98735.13
2022-11-21T22:29:30.702Z,98735.13
2022-11-21T22:34:32.573Z,98739.53
2022-11-21T22:39:34.508Z,98722.88
2022-11-21T22:44:36.047Z,98720.41
2022-11-21T22:49:37.604Z,98710.69
2022-11-21T22:54:39.085Z,98708.44
2022-11-21T22:59:40.617Z,98712.94
2022-11-21T23:04:42.258Z,98716.78
2022-11-21T23:09:43.931Z,98716.50
2022-11-21T23:14:45.553Z,98722.22
2022-11-21T23:19:47.118Z,98722.81
2022-11-21T23:24:48.664Z,98717.63
2022-11-21T23:29:50.218Z,98711.69
2022-11-21T23:34:51.994Z,98712.47
2022-11-21T23:39:53.542Z,98712.34
2022-11-21T23:44:55.634Z,98717.56
2022-11-21T23:49:57.264Z,98712.16
2022-11-21T23:54:58.811Z,98709.19
